Terminal Aerodrome Forecast
Issued by NWS

Home | Current Version | Previous Version | Text Only | Print | Product List | Glossary Off
Versions: 1 2 3 4 5 6 7 8 9 10 11 12 13 14 15 16 17 18 19 20 21 22

000
FTUS43 KMPX 191739
TAFAXN
TAF
KAXN 191739Z 1918/2018 31015G22KT P6SM OVC007
      TEMPO 1918/1920 OVC012
     FM192000 32016G25KT P6SM SCT020 OVC035
     FM200000 32013KT P6SM FEW030 BKN070
     FM201000 31015G23KT P6SM OVC020
     FM201500 31022G32KT P6SM OVC025=

USA.gov is the U.S. government's official web portal to all federal, state and local government web resources and services.